Pagina principale
METAR-TAF:

METAR-TAF

Aeroporti :

Aeroporto di Cervia-Pisignano

Cervia, Italia

latitudine: 44-13N, longitudine: 012-18E, altezza: 6 m

Osservazione

Il bollettino è stato emesso 41 minuti fa, alle 19:55 UTC
Vento 7 kt da est
Temperature 7°C
Umidità 87%
Pressione 1022 hPa
Visibilità 10 km o più
nessuna nube inferiore a 1500 m e nessun cumulonembo

METAR: LIPC 261955Z 08007KT CAVOK 07/05 Q1022 RMK SKC VIS MIN 9999 WIND THR11 /////KT WIND THR29 09007KT BLU

Ora: 21:36 (20:36 UTC)

Previsione

Il bollettino è stato emesso 3 ore e 36 minuti fa, alle 17:00 UTC
Previsione valida dal 26 alle 18 UTC al 27 alle 03 UTC
Vento 10 kt da est
Visibilità 10 km o più
nessuna nube inferiore a 1500 m e nessun cumulonembo
Probabilità 40%
dal 26 alle 18 UTC al 27 alle 03 UTC
Vento 10 kt da est con raffiche fino a 20 kt

TAF: LIPC 261700Z 2618/2703 08010KT CAVOK PROB40 2618/2703 08010G20KT

Osservazioni e previsioni meteorologiche di più di 4000 aeroporti (messaggi METAR e TAF).

Le stazioni disponibili sono rappresentate dai dischi gialli e rossi sulla carta.

Puntare il mouse per vedere il nome della stazione.

Clicca sopra per visualizzare le osservazioni e previsioni meteorologiche.

Per cambiare la mappa : fare clic sui pulsanti verdi con una croce nera per ingrandire, il pulsante verde con un trattino per diminuire, o sulla freccia verde per le mappe adiacenti.


METAR-TAF: